sensor_id;sensor_type;location;lat;lon;timestamp;P1;durP1;ratioP1;P2;durP2;ratioP2
15624;SDS011;7912;51.376;6.126;2023-07-31T00:00:56;8.83;;;4.33;;
15624;SDS011;7912;51.376;6.126;2023-07-31T00:03:23;9.53;;;4.47;;
15624;SDS011;7912;51.376;6.126;2023-07-31T00:05:53;7.37;;;4.17;;
15624;SDS011;7912;51.376;6.126;2023-07-31T00:08:20;9.67;;;4.30;;
15624;SDS011;7912;51.376;6.126;2023-07-31T00:10:50;8.40;;;4.07;;
15624;SDS011;7912;51.376;6.126;2023-07-31T00:13:19;8.43;;;4.63;;
15624;SDS011;7912;51.376;6.126;2023-07-31T00:15:46;9.37;;;4.50;;
15624;SDS011;7912;51.376;6.126;2023-07-31T00:18:14;8.20;;;4.50;;
15624;SDS011;7912;51.376;6.126;2023-07-31T00:20:42;8.47;;;4.57;;
15624;SDS011;7912;51.376;6.126;2023-07-31T00:23:09;9.40;;;4.50;;
15624;SDS011;7912;51.376;6.126;2023-07-31T00:25:36;8.50;;;4.23;;
15624;SDS011;7912;51.376;6.126;2023-07-31T00:28:03;7.07;;;3.77;;
15624;SDS011;7912;51.376;6.126;2023-07-31T00:30:31;8.40;;;4.20;;
15624;SDS011;7912;51.376;6.126;2023-07-31T00:33:01;6.87;;;4.47;;
15624;SDS011;7912;51.376;6.126;2023-07-31T00:35:29;8.10;;;4.27;;
15624;SDS011;7912;51.376;6.126;2023-07-31T00:37:57;10.07;;;4.33;;
15624;SDS011;7912;51.376;6.126;2023-07-31T00:40:25;6.87;;;4.10;;
15624;SDS011;7912;51.376;6.126;2023-07-31T00:42:52;7.37;;;4.20;;
15624;SDS011;7912;51.376;6.126;2023-07-31T00:45:20;7.17;;;3.73;;
15624;SDS011;7912;51.376;6.126;2023-07-31T00:47:50;8.57;;;4.37;;
15624;SDS011;7912;51.376;6.126;2023-07-31T00:50:17;7.43;;;4.00;;
15624;SDS011;7912;51.376;6.126;2023-07-31T00:52:45;8.90;;;3.97;;
15624;SDS011;7912;51.376;6.126;2023-07-31T00:55:12;7.70;;;3.90;;
15624;SDS011;7912;51.376;6.126;2023-07-31T00:57:40;6.50;;;4.07;;
15624;SDS011;7912;51.376;6.126;2023-07-31T01:00:09;7.90;;;3.93;;
15624;SDS011;7912;51.376;6.126;2023-07-31T01:02:37;8.87;;;4.03;;
15624;SDS011;7912;51.376;6.126;2023-07-31T01:05:07;7.50;;;3.87;;
15624;SDS011;7912;51.376;6.126;2023-07-31T01:07:59;4.77;;;3.60;;
15624;SDS011;7912;51.376;6.126;2023-07-31T01:10:38;11.20;;;4.90;;
15624;SDS011;7912;51.376;6.126;2023-07-31T01:13:21;7.07;;;4.20;;
15624;SDS011;7912;51.376;6.126;2023-07-31T01:15:49;7.03;;;3.93;;
15624;SDS011;7912;51.376;6.126;2023-07-31T01:18:17;7.97;;;4.20;;
15624;SDS011;7912;51.376;6.126;2023-07-31T01:20:44;8.60;;;4.17;;
15624;SDS011;7912;51.376;6.126;2023-07-31T01:23:29;6.37;;;3.73;;
15624;SDS011;7912;51.376;6.126;2023-07-31T01:28:56;7.30;;;4.57;;
15624;SDS011;7912;51.376;6.126;2023-07-31T01:31:33;6.93;;;3.87;;
15624;SDS011;7912;51.376;6.126;2023-07-31T01:34:03;8.47;;;4.43;;
15624;SDS011;7912;51.376;6.126;2023-07-31T01:36:32;7.97;;;4.70;;
15624;SDS011;7912;51.376;6.126;2023-07-31T01:39:01;8.13;;;4.67;;
15624;SDS011;7912;51.376;6.126;2023-07-31T01:41:28;10.47;;;4.70;;
15624;SDS011;7912;51.376;6.126;2023-07-31T01:43:56;7.80;;;4.63;;
15624;SDS011;7912;51.376;6.126;2023-07-31T01:46:23;7.10;;;4.30;;
15624;SDS011;7912;51.376;6.126;2023-07-31T01:48:51;11.07;;;4.80;;
15624;SDS011;7912;51.376;6.126;2023-07-31T01:51:18;10.27;;;3.97;;
15624;SDS011;7912;51.376;6.126;2023-07-31T01:53:45;8.60;;;4.27;;
15624;SDS011;7912;51.376;6.126;2023-07-31T01:56:12;9.13;;;4.80;;
15624;SDS011;7912;51.376;6.126;2023-07-31T01:58:40;9.00;;;4.77;;
15624;SDS011;7912;51.376;6.126;2023-07-31T02:01:08;8.80;;;4.37;;
15624;SDS011;7912;51.376;6.126;2023-07-31T02:03:35;8.47;;;4.50;;
15624;SDS011;7912;51.376;6.126;2023-07-31T02:06:04;11.90;;;4.30;;
15624;SDS011;7912;51.376;6.126;2023-07-31T02:08:31;8.67;;;4.83;;
15624;SDS011;7912;51.376;6.126;2023-07-31T02:10:59;8.97;;;4.60;;
15624;SDS011;7912;51.376;6.126;2023-07-31T02:13:26;7.90;;;4.33;;
15624;SDS011;7912;51.376;6.126;2023-07-31T02:15:54;10.50;;;4.67;;
15624;SDS011;7912;51.376;6.126;2023-07-31T02:18:21;9.63;;;4.70;;
15624;SDS011;7912;51.376;6.126;2023-07-31T02:20:49;9.43;;;4.30;;
15624;SDS011;7912;51.376;6.126;2023-07-31T02:23:22;7.87;;;4.40;;
15624;SDS011;7912;51.376;6.126;2023-07-31T02:25:50;9.40;;;4.47;;
15624;SDS011;7912;51.376;6.126;2023-07-31T02:28:17;10.27;;;4.47;;
15624;SDS011;7912;51.376;6.126;2023-07-31T02:30:45;7.03;;;4.03;;
15624;SDS011;7912;51.376;6.126;2023-07-31T02:33:15;9.03;;;4.63;;
15624;SDS011;7912;51.376;6.126;2023-07-31T02:35:45;8.67;;;4.47;;
15624;SDS011;7912;51.376;6.126;2023-07-31T02:38:13;7.10;;;4.30;;
15624;SDS011;7912;51.376;6.126;2023-07-31T02:40:40;10.93;;;4.20;;
15624;SDS011;7912;51.376;6.126;2023-07-31T02:43:08;7.17;;;4.67;;
15624;SDS011;7912;51.376;6.126;2023-07-31T02:45:35;8.03;;;4.70;;
15624;SDS011;7912;51.376;6.126;2023-07-31T02:48:04;8.60;;;4.57;;
15624;SDS011;7912;51.376;6.126;2023-07-31T02:50:32;10.63;;;4.50;;
15624;SDS011;7912;51.376;6.126;2023-07-31T02:52:59;9.20;;;4.33;;
15624;SDS011;7912;51.376;6.126;2023-07-31T02:55:29;10.37;;;5.20;;
15624;SDS011;7912;51.376;6.126;2023-07-31T02:57:56;9.03;;;4.23;;
15624;SDS011;7912;51.376;6.126;2023-07-31T03:00:24;9.97;;;4.50;;
15624;SDS011;7912;51.376;6.126;2023-07-31T03:02:51;10.13;;;4.50;;
15624;SDS011;7912;51.376;6.126;2023-07-31T03:05:19;9.17;;;4.27;;
15624;SDS011;7912;51.376;6.126;2023-07-31T03:07:46;7.77;;;4.50;;
15624;SDS011;7912;51.376;6.126;2023-07-31T03:10:14;7.73;;;4.53;;
15624;SDS011;7912;51.376;6.126;2023-07-31T03:12:41;9.33;;;4.87;;
15624;SDS011;7912;51.376;6.126;2023-07-31T03:15:09;9.30;;;4.20;;
15624;SDS011;7912;51.376;6.126;2023-07-31T03:17:36;9.23;;;4.80;;
15624;SDS011;7912;51.376;6.126;2023-07-31T03:20:04;7.50;;;4.47;;
15624;SDS011;7912;51.376;6.126;2023-07-31T03:22:32;8.70;;;4.87;;
15624;SDS011;7912;51.376;6.126;2023-07-31T03:25:02;7.90;;;4.30;;
15624;SDS011;7912;51.376;6.126;2023-07-31T03:27:30;8.87;;;4.50;;
15624;SDS011;7912;51.376;6.126;2023-07-31T03:29:57;7.70;;;3.97;;
15624;SDS011;7912;51.376;6.126;2023-07-31T03:32:25;8.37;;;4.10;;
15624;SDS011;7912;51.376;6.126;2023-07-31T03:34:53;6.43;;;4.20;;
15624;SDS011;7912;51.376;6.126;2023-07-31T03:37:20;12.00;;;4.53;;
15624;SDS011;7912;51.376;6.126;2023-07-31T03:39:50;10.87;;;4.53;;
15624;SDS011;7912;51.376;6.126;2023-07-31T03:42:21;12.03;;;4.67;;
15624;SDS011;7912;51.376;6.126;2023-07-31T03:44:48;7.77;;;4.30;;
15624;SDS011;7912;51.376;6.126;2023-07-31T03:47:17;8.97;;;4.23;;
15624;SDS011;7912;51.376;6.126;2023-07-31T03:49:45;7.30;;;4.83;;
15624;SDS011;7912;51.376;6.126;2023-07-31T03:52:12;8.30;;;3.93;;
15624;SDS011;7912;51.376;6.126;2023-07-31T03:54:39;6.63;;;4.20;;
15624;SDS011;7912;51.376;6.126;2023-07-31T03:57:07;9.10;;;3.87;;
15624;SDS011;7912;51.376;6.126;2023-07-31T03:59:34;6.17;;;3.70;;
15624;SDS011;7912;51.376;6.126;2023-07-31T04:02:01;9.47;;;4.13;;
15624;SDS011;7912;51.376;6.126;2023-07-31T04:04:29;7.67;;;4.40;;
15624;SDS011;7912;51.376;6.126;2023-07-31T04:07:00;7.77;;;4.50;;
15624;SDS011;7912;51.376;6.126;2023-07-31T04:09:27;8.40;;;4.20;;
15624;SDS011;7912;51.376;6.126;2023-07-31T04:11:55;7.53;;;3.97;;
15624;SDS011;7912;51.376;6.126;2023-07-31T04:14:22;7.73;;;4.43;;
15624;SDS011;7912;51.376;6.126;2023-07-31T04:16:50;8.37;;;4.10;;
15624;SDS011;7912;51.376;6.126;2023-07-31T04:19:17;9.57;;;4.47;;
15624;SDS011;7912;51.376;6.126;2023-07-31T04:21:44;6.30;;;4.40;;
15624;SDS011;7912;51.376;6.126;2023-07-31T04:24:12;7.70;;;4.40;;
15624;SDS011;7912;51.376;6.126;2023-07-31T04:26:39;9.40;;;4.20;;
15624;SDS011;7912;51.376;6.126;2023-07-31T04:29:07;6.80;;;4.47;;
15624;SDS011;7912;51.376;6.126;2023-07-31T04:31:34;8.37;;;4.40;;
15624;SDS011;7912;51.376;6.126;2023-07-31T04:34:05;7.43;;;4.30;;
15624;SDS011;7912;51.376;6.126;2023-07-31T04:36:33;6.60;;;4.10;;
15624;SDS011;7912;51.376;6.126;2023-07-31T04:39:01;7.83;;;4.23;;
15624;SDS011;7912;51.376;6.126;2023-07-31T04:41:29;7.30;;;4.37;;
15624;SDS011;7912;51.376;6.126;2023-07-31T04:43:56;7.43;;;4.30;;
15624;SDS011;7912;51.376;6.126;2023-07-31T04:46:24;7.70;;;4.63;;
15624;SDS011;7912;51.376;6.126;2023-07-31T04:48:51;6.33;;;4.30;;
15624;SDS011;7912;51.376;6.126;2023-07-31T04:51:18;9.03;;;5.13;;
15624;SDS011;7912;51.376;6.126;2023-07-31T04:53:47;6.23;;;3.90;;
15624;SDS011;7912;51.376;6.126;2023-07-31T04:56:15;7.60;;;4.40;;
15624;SDS011;7912;51.376;6.126;2023-07-31T04:58:43;6.87;;;4.27;;
15624;SDS011;7912;51.376;6.126;2023-07-31T05:01:10;7.23;;;4.27;;
15624;SDS011;7912;51.376;6.126;2023-07-31T05:03:37;6.67;;;4.40;;
15624;SDS011;7912;51.376;6.126;2023-07-31T05:06:05;7.07;;;4.00;;
15624;SDS011;7912;51.376;6.126;2023-07-31T05:08:32;7.40;;;4.13;;
15624;SDS011;7912;51.376;6.126;2023-07-31T05:11:00;6.27;;;4.03;;
15624;SDS011;7912;51.376;6.126;2023-07-31T05:13:29;7.03;;;4.20;;
15624;SDS011;7912;51.376;6.126;2023-07-31T05:15:56;5.77;;;4.40;;
15624;SDS011;7912;51.376;6.126;2023-07-31T05:18:27;7.00;;;4.33;;
15624;SDS011;7912;51.376;6.126;2023-07-31T05:20:54;5.60;;;3.67;;
15624;SDS011;7912;51.376;6.126;2023-07-31T05:23:22;6.77;;;4.43;;
15624;SDS011;7912;51.376;6.126;2023-07-31T05:25:49;5.83;;;4.20;;
15624;SDS011;7912;51.376;6.126;2023-07-31T05:28:16;7.17;;;4.60;;
15624;SDS011;7912;51.376;6.126;2023-07-31T05:30:44;7.67;;;4.87;;
15624;SDS011;7912;51.376;6.126;2023-07-31T05:33:11;6.50;;;4.57;;
15624;SDS011;7912;51.376;6.126;2023-07-31T05:35:40;5.73;;;4.40;;
15624;SDS011;7912;51.376;6.126;2023-07-31T05:38:07;6.53;;;4.73;;
15624;SDS011;7912;51.376;6.126;2023-07-31T05:40:35;5.77;;;4.13;;
15624;SDS011;7912;51.376;6.126;2023-07-31T05:43:02;5.67;;;4.23;;
15624;SDS011;7912;51.376;6.126;2023-07-31T05:45:29;6.80;;;4.27;;
15624;SDS011;7912;51.376;6.126;2023-07-31T05:47:59;5.33;;;4.43;;
15624;SDS011;7912;51.376;6.126;2023-07-31T05:50:26;6.43;;;4.70;;
15624;SDS011;7912;51.376;6.126;2023-07-31T05:52:53;6.27;;;4.10;;
15624;SDS011;7912;51.376;6.126;2023-07-31T05:55:21;6.03;;;4.63;;
15624;SDS011;7912;51.376;6.126;2023-07-31T05:57:48;6.47;;;4.90;;
15624;SDS011;7912;51.376;6.126;2023-07-31T06:00:16;6.73;;;4.43;;
15624;SDS011;7912;51.376;6.126;2023-07-31T06:02:43;5.77;;;4.53;;
15624;SDS011;7912;51.376;6.126;2023-07-31T06:05:11;6.27;;;4.30;;
15624;SDS011;7912;51.376;6.126;2023-07-31T06:07:38;6.77;;;4.47;;
15624;SDS011;7912;51.376;6.126;2023-07-31T06:10:06;6.23;;;4.00;;
15624;SDS011;7912;51.376;6.126;2023-07-31T06:12:35;7.20;;;4.47;;
15624;SDS011;7912;51.376;6.126;2023-07-31T06:15:03;5.47;;;4.30;;
15624;SDS011;7912;51.376;6.126;2023-07-31T06:17:31;5.53;;;4.43;;
15624;SDS011;7912;51.376;6.126;2023-07-31T06:19:58;4.43;;;3.80;;
15624;SDS011;7912;51.376;6.126;2023-07-31T06:22:26;5.53;;;4.03;;
15624;SDS011;7912;51.376;6.126;2023-07-31T06:24:53;5.60;;;4.30;;
15624;SDS011;7912;51.376;6.126;2023-07-31T06:27:20;4.83;;;3.90;;
15624;SDS011;7912;51.376;6.126;2023-07-31T06:29:48;5.53;;;4.30;;
15624;SDS011;7912;51.376;6.126;2023-07-31T06:32:15;6.37;;;4.13;;
15624;SDS011;7912;51.376;6.126;2023-07-31T06:34:43;6.37;;;4.40;;
15624;SDS011;7912;51.376;6.126;2023-07-31T06:37:10;5.17;;;4.27;;
15624;SDS011;7912;51.376;6.126;2023-07-31T06:39:38;8.20;;;4.67;;
15624;SDS011;7912;51.376;6.126;2023-07-31T06:42:05;6.27;;;4.27;;
15624;SDS011;7912;51.376;6.126;2023-07-31T06:44:33;6.30;;;4.07;;
15624;SDS011;7912;51.376;6.126;2023-07-31T06:47:00;6.33;;;4.20;;
15624;SDS011;7912;51.376;6.126;2023-07-31T06:49:28;4.87;;;4.13;;
15624;SDS011;7912;51.376;6.126;2023-07-31T06:51:55;5.20;;;4.40;;
15624;SDS011;7912;51.376;6.126;2023-07-31T06:54:23;5.30;;;4.03;;
15624;SDS011;7912;51.376;6.126;2023-07-31T06:56:50;7.30;;;4.30;;
15624;SDS011;7912;51.376;6.126;2023-07-31T06:59:18;5.67;;;4.20;;
15624;SDS011;7912;51.376;6.126;2023-07-31T07:01:49;5.00;;;3.63;;
15624;SDS011;7912;51.376;6.126;2023-07-31T07:04:16;6.47;;;4.50;;
15624;SDS011;7912;51.376;6.126;2023-07-31T07:06:44;4.50;;;3.57;;
15624;SDS011;7912;51.376;6.126;2023-07-31T07:09:11;4.70;;;4.13;;
15624;SDS011;7912;51.376;6.126;2023-07-31T07:11:42;5.57;;;4.07;;
15624;SDS011;7912;51.376;6.126;2023-07-31T07:14:09;5.63;;;4.33;;
15624;SDS011;7912;51.376;6.126;2023-07-31T07:16:36;5.77;;;4.07;;
15624;SDS011;7912;51.376;6.126;2023-07-31T07:19:05;5.00;;;3.90;;
15624;SDS011;7912;51.376;6.126;2023-07-31T07:21:32;5.27;;;4.43;;
15624;SDS011;7912;51.376;6.126;2023-07-31T07:23:59;4.50;;;3.50;;
15624;SDS011;7912;51.376;6.126;2023-07-31T07:26:28;4.33;;;3.33;;
15624;SDS011;7912;51.376;6.126;2023-07-31T07:28:56;4.17;;;3.33;;
15624;SDS011;7912;51.376;6.126;2023-07-31T07:31:27;3.93;;;3.40;;
15624;SDS011;7912;51.376;6.126;2023-07-31T07:33:55;4.40;;;3.27;;
15624;SDS011;7912;51.376;6.126;2023-07-31T07:36:23;3.93;;;3.23;;
15624;SDS011;7912;51.376;6.126;2023-07-31T07:38:50;3.77;;;3.13;;
15624;SDS011;7912;51.376;6.126;2023-07-31T07:41:18;5.97;;;3.07;;
15624;SDS011;7912;51.376;6.126;2023-07-31T07:43:45;4.47;;;3.20;;
15624;SDS011;7912;51.376;6.126;2023-07-31T07:46:13;3.30;;;2.83;;
15624;SDS011;7912;51.376;6.126;2023-07-31T07:48:41;3.70;;;2.97;;
15624;SDS011;7912;51.376;6.126;2023-07-31T07:51:13;4.80;;;3.30;;
15624;SDS011;7912;51.376;6.126;2023-07-31T07:53:41;4.87;;;3.40;;
15624;SDS011;7912;51.376;6.126;2023-07-31T07:56:10;3.67;;;2.93;;
15624;SDS011;7912;51.376;6.126;2023-07-31T07:58:37;4.50;;;3.30;;
15624;SDS011;7912;51.376;6.126;2023-07-31T08:01:05;4.80;;;2.90;;
15624;SDS011;7912;51.376;6.126;2023-07-31T08:03:32;4.60;;;3.03;;
15624;SDS011;7912;51.376;6.126;2023-07-31T08:06:00;3.77;;;3.07;;
15624;SDS011;7912;51.376;6.126;2023-07-31T08:08:31;4.17;;;2.87;;
15624;SDS011;7912;51.376;6.126;2023-07-31T08:11:01;5.10;;;3.20;;
15624;SDS011;7912;51.376;6.126;2023-07-31T08:13:29;4.53;;;3.07;;
15624;SDS011;7912;51.376;6.126;2023-07-31T08:15:57;3.57;;;3.10;;
15624;SDS011;7912;51.376;6.126;2023-07-31T08:18:26;4.27;;;3.17;;
15624;SDS011;7912;51.376;6.126;2023-07-31T08:20:54;4.27;;;3.30;;
15624;SDS011;7912;51.376;6.126;2023-07-31T08:23:21;4.00;;;3.10;;
15624;SDS011;7912;51.376;6.126;2023-07-31T08:25:48;3.90;;;2.77;;
15624;SDS011;7912;51.376;6.126;2023-07-31T08:28:18;3.40;;;3.10;;
15624;SDS011;7912;51.376;6.126;2023-07-31T08:30:49;4.23;;;2.90;;
15624;SDS011;7912;51.376;6.126;2023-07-31T08:33:17;4.67;;;3.10;;
15624;SDS011;7912;51.376;6.126;2023-07-31T08:35:45;4.70;;;3.00;;
15624;SDS011;7912;51.376;6.126;2023-07-31T08:38:13;3.80;;;3.13;;
15624;SDS011;7912;51.376;6.126;2023-07-31T08:40:40;4.30;;;3.10;;
15624;SDS011;7912;51.376;6.126;2023-07-31T08:43:10;3.27;;;2.97;;
15624;SDS011;7912;51.376;6.126;2023-07-31T08:45:37;4.33;;;2.97;;
15624;SDS011;7912;51.376;6.126;2023-07-31T08:48:08;5.23;;;3.10;;
15624;SDS011;7912;51.376;6.126;2023-07-31T08:50:37;4.97;;;3.33;;
15624;SDS011;7912;51.376;6.126;2023-07-31T08:53:06;3.23;;;2.90;;
15624;SDS011;7912;51.376;6.126;2023-07-31T08:55:33;4.30;;;3.00;;
15624;SDS011;7912;51.376;6.126;2023-07-31T08:58:02;3.40;;;2.63;;
15624;SDS011;7912;51.376;6.126;2023-07-31T09:00:32;3.40;;;3.10;;
15624;SDS011;7912;51.376;6.126;2023-07-31T09:03:03;4.13;;;3.00;;
15624;SDS011;7912;51.376;6.126;2023-07-31T09:05:44;3.07;;;2.77;;
15624;SDS011;7912;51.376;6.126;2023-07-31T09:08:13;3.80;;;3.00;;
15624;SDS011;7912;51.376;6.126;2023-07-31T09:10:46;3.47;;;3.17;;
15624;SDS011;7912;51.376;6.126;2023-07-31T09:13:16;3.77;;;3.13;;
15624;SDS011;7912;51.376;6.126;2023-07-31T09:15:46;4.77;;;3.00;;
15624;SDS011;7912;51.376;6.126;2023-07-31T09:18:13;4.70;;;3.23;;
15624;SDS011;7912;51.376;6.126;2023-07-31T09:20:45;4.10;;;3.40;;
15624;SDS011;7912;51.376;6.126;2023-07-31T09:23:13;4.37;;;3.13;;
15624;SDS011;7912;51.376;6.126;2023-07-31T09:25:44;3.60;;;3.13;;
15624;SDS011;7912;51.376;6.126;2023-07-31T09:28:13;5.33;;;3.60;;
15624;SDS011;7912;51.376;6.126;2023-07-31T09:30:45;5.63;;;3.70;;
15624;SDS011;7912;51.376;6.126;2023-07-31T09:33:18;4.60;;;2.90;;
15624;SDS011;7912;51.376;6.126;2023-07-31T09:35:48;4.33;;;3.50;;
15624;SDS011;7912;51.376;6.126;2023-07-31T09:38:18;3.90;;;3.30;;
15624;SDS011;7912;51.376;6.126;2023-07-31T09:40:50;4.17;;;3.40;;
15624;SDS011;7912;51.376;6.126;2023-07-31T09:43:19;4.27;;;3.53;;
15624;SDS011;7912;51.376;6.126;2023-07-31T09:45:48;5.57;;;3.40;;
15624;SDS011;7912;51.376;6.126;2023-07-31T09:48:23;4.70;;;3.30;;
15624;SDS011;7912;51.376;6.126;2023-07-31T09:50:54;4.97;;;3.20;;
15624;SDS011;7912;51.376;6.126;2023-07-31T09:53:27;3.77;;;3.17;;
15624;SDS011;7912;51.376;6.126;2023-07-31T09:55:58;5.23;;;3.50;;
15624;SDS011;7912;51.376;6.126;2023-07-31T09:58:28;4.43;;;3.50;;
15624;SDS011;7912;51.376;6.126;2023-07-31T10:01:01;4.90;;;3.73;;
15624;SDS011;7912;51.376;6.126;2023-07-31T10:03:30;4.37;;;3.20;;
15624;SDS011;7912;51.376;6.126;2023-07-31T10:06:02;4.17;;;3.77;;
15624;SDS011;7912;51.376;6.126;2023-07-31T10:08:32;3.97;;;3.50;;
15624;SDS011;7912;51.376;6.126;2023-07-31T10:11:03;4.63;;;3.27;;
15624;SDS011;7912;51.376;6.126;2023-07-31T10:13:33;5.30;;;3.47;;
15624;SDS011;7912;51.376;6.126;2023-07-31T10:16:01;3.87;;;3.30;;
15624;SDS011;7912;51.376;6.126;2023-07-31T10:18:30;4.83;;;3.37;;
15624;SDS011;7912;51.376;6.126;2023-07-31T10:20:58;4.27;;;2.90;;
15624;SDS011;7912;51.376;6.126;2023-07-31T10:23:26;3.87;;;3.10;;
15624;SDS011;7912;51.376;6.126;2023-07-31T10:25:55;3.50;;;2.83;;
15624;SDS011;7912;51.376;6.126;2023-07-31T10:28:25;3.57;;;3.10;;
15624;SDS011;7912;51.376;6.126;2023-07-31T10:30:54;3.77;;;3.00;;
15624;SDS011;7912;51.376;6.126;2023-07-31T10:33:22;3.70;;;2.90;;
15624;SDS011;7912;51.376;6.126;2023-07-31T10:35:50;3.10;;;2.80;;
15624;SDS011;7912;51.376;6.126;2023-07-31T10:38:42;4.07;;;2.90;;
15624;SDS011;7912;51.376;6.126;2023-07-31T10:41:09;3.53;;;2.43;;
15624;SDS011;7912;51.376;6.126;2023-07-31T10:43:37;4.03;;;2.90;;
15624;SDS011;7912;51.376;6.126;2023-07-31T10:46:11;3.90;;;2.77;;
15624;SDS011;7912;51.376;6.126;2023-07-31T10:48:41;3.23;;;2.60;;
15624;SDS011;7912;51.376;6.126;2023-07-31T10:51:11;3.27;;;2.67;;
15624;SDS011;7912;51.376;6.126;2023-07-31T10:53:39;3.17;;;2.50;;
15624;SDS011;7912;51.376;6.126;2023-07-31T10:56:09;3.53;;;2.70;;
15624;SDS011;7912;51.376;6.126;2023-07-31T10:58:43;2.37;;;2.13;;
15624;SDS011;7912;51.376;6.126;2023-07-31T11:01:12;2.70;;;2.50;;
15624;SDS011;7912;51.376;6.126;2023-07-31T11:03:44;2.67;;;2.40;;
15624;SDS011;7912;51.376;6.126;2023-07-31T11:06:16;3.20;;;2.60;;
15624;SDS011;7912;51.376;6.126;2023-07-31T11:08:48;2.77;;;2.30;;
15624;SDS011;7912;51.376;6.126;2023-07-31T11:11:18;2.73;;;2.30;;
15624;SDS011;7912;51.376;6.126;2023-07-31T11:16:20;2.73;;;2.43;;
15624;SDS011;7912;51.376;6.126;2023-07-31T11:18:51;3.70;;;2.73;;
15624;SDS011;7912;51.376;6.126;2023-07-31T11:21:23;3.43;;;2.80;;
15624;SDS011;7912;51.376;6.126;2023-07-31T11:23:52;2.80;;;2.57;;
15624;SDS011;7912;51.376;6.126;2023-07-31T11:26:26;3.43;;;2.43;;
15624;SDS011;7912;51.376;6.126;2023-07-31T11:28:54;2.70;;;2.50;;
15624;SDS011;7912;51.376;6.126;2023-07-31T11:31:22;2.67;;;2.47;;
15624;SDS011;7912;51.376;6.126;2023-07-31T11:33:49;2.80;;;2.20;;
15624;SDS011;7912;51.376;6.126;2023-07-31T11:36:31;2.70;;;2.20;;
15624;SDS011;7912;51.376;6.126;2023-07-31T11:45:58;2.50;;;2.30;;
15624;SDS011;7912;51.376;6.126;2023-07-31T11:48:31;2.43;;;2.23;;
15624;SDS011;7912;51.376;6.126;2023-07-31T11:51:07;2.70;;;2.30;;
15624;SDS011;7912;51.376;6.126;2023-07-31T11:54:02;3.00;;;2.40;;
15624;SDS011;7912;51.376;6.126;2023-07-31T11:56:29;3.97;;;2.40;;
15624;SDS011;7912;51.376;6.126;2023-07-31T11:58:57;2.80;;;2.40;;
15624;SDS011;7912;51.376;6.126;2023-07-31T12:01:29;3.17;;;2.67;;
15624;SDS011;7912;51.376;6.126;2023-07-31T12:03:57;2.60;;;2.40;;
15624;SDS011;7912;51.376;6.126;2023-07-31T12:06:32;3.43;;;2.53;;
15624;SDS011;7912;51.376;6.126;2023-07-31T12:09:06;2.60;;;2.40;;
15624;SDS011;7912;51.376;6.126;2023-07-31T12:11:43;2.90;;;2.70;;
15624;SDS011;7912;51.376;6.126;2023-07-31T12:14:22;2.83;;;2.60;;
15624;SDS011;7912;51.376;6.126;2023-07-31T12:16:58;3.00;;;2.50;;
15624;SDS011;7912;51.376;6.126;2023-07-31T12:19:31;2.83;;;2.47;;
15624;SDS011;7912;51.376;6.126;2023-07-31T12:22:01;3.17;;;2.63;;
15624;SDS011;7912;51.376;6.126;2023-07-31T12:24:43;3.67;;;2.57;;
15624;SDS011;7912;51.376;6.126;2023-07-31T12:27:11;3.53;;;2.60;;
15624;SDS011;7912;51.376;6.126;2023-07-31T12:29:41;2.80;;;2.57;;
15624;SDS011;7912;51.376;6.126;2023-07-31T12:32:22;3.67;;;2.93;;
15624;SDS011;7912;51.376;6.126;2023-07-31T12:34:59;3.60;;;3.00;;
15624;SDS011;7912;51.376;6.126;2023-07-31T12:37:28;4.03;;;3.10;;
15624;SDS011;7912;51.376;6.126;2023-07-31T12:39:55;4.43;;;3.30;;
15624;SDS011;7912;51.376;6.126;2023-07-31T12:42:27;3.57;;;2.90;;
15624;SDS011;7912;51.376;6.126;2023-07-31T12:44:54;4.03;;;3.40;;
15624;SDS011;7912;51.376;6.126;2023-07-31T12:47:22;4.07;;;3.50;;
15624;SDS011;7912;51.376;6.126;2023-07-31T12:49:49;4.67;;;3.53;;
15624;SDS011;7912;51.376;6.126;2023-07-31T12:52:20;4.70;;;3.60;;
15624;SDS011;7912;51.376;6.126;2023-07-31T12:54:47;4.77;;;3.70;;
15624;SDS011;7912;51.376;6.126;2023-07-31T12:57:15;3.40;;;3.10;;
15624;SDS011;7912;51.376;6.126;2023-07-31T12:59:42;4.30;;;3.50;;
15624;SDS011;7912;51.376;6.126;2023-07-31T13:02:13;6.43;;;4.13;;
15624;SDS011;7912;51.376;6.126;2023-07-31T13:04:46;5.40;;;4.00;;
15624;SDS011;7912;51.376;6.126;2023-07-31T13:07:13;4.00;;;3.50;;
15624;SDS011;7912;51.376;6.126;2023-07-31T13:09:41;4.03;;;3.50;;
15624;SDS011;7912;51.376;6.126;2023-07-31T13:12:08;4.83;;;3.70;;
15624;SDS011;7912;51.376;6.126;2023-07-31T13:14:36;5.27;;;3.53;;
15624;SDS011;7912;51.376;6.126;2023-07-31T13:17:03;5.13;;;3.97;;
15624;SDS011;7912;51.376;6.126;2023-07-31T13:19:33;4.73;;;3.80;;
15624;SDS011;7912;51.376;6.126;2023-07-31T13:22:03;6.07;;;3.80;;
15624;SDS011;7912;51.376;6.126;2023-07-31T13:24:34;4.30;;;3.90;;
15624;SDS011;7912;51.376;6.126;2023-07-31T13:27:02;5.23;;;3.57;;
15624;SDS011;7912;51.376;6.126;2023-07-31T13:29:32;6.70;;;3.57;;
15624;SDS011;7912;51.376;6.126;2023-07-31T13:32:03;5.93;;;4.23;;
15624;SDS011;7912;51.376;6.126;2023-07-31T13:34:31;5.50;;;3.47;;
15624;SDS011;7912;51.376;6.126;2023-07-31T13:37:01;4.57;;;3.67;;
15624;SDS011;7912;51.376;6.126;2023-07-31T13:39:32;5.27;;;4.13;;
15624;SDS011;7912;51.376;6.126;2023-07-31T13:42:02;4.43;;;3.87;;
15624;SDS011;7912;51.376;6.126;2023-07-31T13:44:35;4.47;;;3.60;;
15624;SDS011;7912;51.376;6.126;2023-07-31T13:47:03;4.87;;;3.60;;
15624;SDS011;7912;51.376;6.126;2023-07-31T13:49:34;5.83;;;3.97;;
15624;SDS011;7912;51.376;6.126;2023-07-31T13:52:06;4.50;;;4.00;;
15624;SDS011;7912;51.376;6.126;2023-07-31T13:54:36;4.33;;;3.93;;
15624;SDS011;7912;51.376;6.126;2023-07-31T13:57:04;4.30;;;3.47;;
15624;SDS011;7912;51.376;6.126;2023-07-31T13:59:32;4.50;;;3.87;;
15624;SDS011;7912;51.376;6.126;2023-07-31T14:01:59;5.63;;;4.37;;
15624;SDS011;7912;51.376;6.126;2023-07-31T14:04:33;5.93;;;4.30;;
15624;SDS011;7912;51.376;6.126;2023-07-31T14:07:01;4.80;;;4.10;;
15624;SDS011;7912;51.376;6.126;2023-07-31T14:09:33;5.63;;;4.03;;
15624;SDS011;7912;51.376;6.126;2023-07-31T14:12:07;8.33;;;4.27;;
15624;SDS011;7912;51.376;6.126;2023-07-31T14:14:37;5.57;;;4.17;;
15624;SDS011;7912;51.376;6.126;2023-07-31T14:17:07;4.97;;;4.10;;
15624;SDS011;7912;51.376;6.126;2023-07-31T14:19:35;6.17;;;4.20;;
15624;SDS011;7912;51.376;6.126;2023-07-31T14:22:06;5.10;;;4.37;;
15624;SDS011;7912;51.376;6.126;2023-07-31T14:24:37;4.73;;;3.90;;
15624;SDS011;7912;51.376;6.126;2023-07-31T14:27:06;7.43;;;3.97;;
15624;SDS011;7912;51.376;6.126;2023-07-31T14:29:36;7.00;;;4.03;;
15624;SDS011;7912;51.376;6.126;2023-07-31T14:32:04;4.47;;;3.80;;
15624;SDS011;7912;51.376;6.126;2023-07-31T14:34:31;6.30;;;4.07;;
15624;SDS011;7912;51.376;6.126;2023-07-31T14:36:59;4.80;;;4.17;;
15624;SDS011;7912;51.376;6.126;2023-07-31T14:39:27;5.03;;;3.70;;
15624;SDS011;7912;51.376;6.126;2023-07-31T14:41:54;7.17;;;4.70;;
15624;SDS011;7912;51.376;6.126;2023-07-31T14:44:22;5.20;;;3.87;;
15624;SDS011;7912;51.376;6.126;2023-07-31T14:46:49;5.13;;;4.27;;
15624;SDS011;7912;51.376;6.126;2023-07-31T14:53:22;5.97;;;4.20;;
15624;SDS011;7912;51.376;6.126;2023-07-31T14:55:50;4.57;;;4.07;;
15624;SDS011;7912;51.376;6.126;2023-07-31T14:58:19;4.73;;;3.93;;
15624;SDS011;7912;51.376;6.126;2023-07-31T15:00:47;4.57;;;3.90;;
15624;SDS011;7912;51.376;6.126;2023-07-31T15:03:18;7.53;;;4.30;;
15624;SDS011;7912;51.376;6.126;2023-07-31T15:05:46;7.17;;;4.77;;
15624;SDS011;7912;51.376;6.126;2023-07-31T15:08:22;5.33;;;4.17;;
15624;SDS011;7912;51.376;6.126;2023-07-31T15:10:57;5.00;;;4.47;;
15624;SDS011;7912;51.376;6.126;2023-07-31T15:13:35;4.57;;;4.07;;
15624;SDS011;7912;51.376;6.126;2023-07-31T15:20:35;6.10;;;4.63;;
15624;SDS011;7912;51.376;6.126;2023-07-31T15:23:23;5.63;;;4.43;;
15624;SDS011;7912;51.376;6.126;2023-07-31T15:25:56;5.23;;;4.37;;
15624;SDS011;7912;51.376;6.126;2023-07-31T15:28:25;5.33;;;4.40;;
15624;SDS011;7912;51.376;6.126;2023-07-31T15:31:03;6.07;;;4.50;;
15624;SDS011;7912;51.376;6.126;2023-07-31T15:33:31;6.63;;;4.20;;